Airfield :
LOGIN :

Register | Disclaimer

   EN    FR    IT 

 










Legend :    VFR   Marginal VFR   IFR   Intensive IFR   Very Intensive IFR
Visi :
Ceiling :
>= 8 km
>= 3000ft
5 to 8 km
1000 to 3000 ft
1500m to 5 km
500 to 1000 ft
800 to 1500m
200 to 500 ft
< 800m
< 200 ft
Symbols :   Thunderstorms  Fog  Heavy snow  Heavy precipitations  Wind > 20 kt
SIGMETs :     Misc.  Thunderstorms  Icing  Turbulence  Mountain Waves  Volcanic Ashes






- Airport Elevation : 1234 ft
- IATA code : LUX


ELLX - Luxembourg Findel

CURRENT METAR :
  • 170320Z 19004KT 150V210 9999 FEW009 BKN013 13/13 Q1011 NOSIG

EXPIRED METARs :
  • 170250Z 20005KT 170V230 9999 FEW006 BKN008 13/13 Q1011 NOSIG
  • 170220Z AUTO 20006KT 170V230 9999 SCT003/// BKN006/// OVC009/// 14/13 Q1011 NOSIG
  • 170150Z AUTO 20005KT 9999 SCT003/// SCT007/// OVC013/// 14/13 Q1011 NOSIG
  • 170120Z AUTO 18004KT 140V220 9999 FEW003/// BKN004/// BKN006/// 14/13 Q1010 NOSIG
  • 170050Z AUTO 19004KT 160V240 9999 FEW005/// BKN006/// BKN008/// 14/13 Q1011 NOSIG
  • 170020Z 20004KT 9999 SCT005 BKN008 14/13 Q1011 NOSIG
  • 162350Z 20007KT 170V230 9999 SCT005 BKN008 14/13 Q1011 NOSIG
  • 162320Z 18005KT 150V210 9999 SCT005 BKN008 14/13 Q1011 NOSIG

TAF TAF ELLX
Valid from the 17 at 00:00 until the 18 at 06:00 UTC


162300Z 1700/1806 20008KT 9999 SCT009 BKN013
TEMPO 1700/1708 4000 -RADZ BR BKN005
BECMG 1708/1710 BKN020
TEMPO 1710/1720 4000 SHRA SCT013TCU BKN015
BECMG 1723/1801 04007KT
ATIS : +352 4798 27300
Met : +352 4798 27010 / 27050



MET'MAP, your aeronautical weather chart ! - Copyright ORBIFLY December 2007 - Disclaimer

ORBIFLY MET'MAP TEAM :

Programming & Development : Alexandra Zaïnal
Original concept : Baudouin d'Aumeries
Technical & hardware support : Manuel Goepfert
Assistance : Marc-Olivier Méhu




SOURCES & CREDITS :

   NOAA